createdAt,value
2023-04-23T00:02:54.626Z,59.08
2023-04-23T00:08:14.290Z,58.77
2023-04-23T00:13:06.718Z,58.86
2023-04-23T00:18:06.658Z,58.91
2023-04-23T00:23:06.591Z,58.84
2023-04-23T00:28:06.559Z,58.78
2023-04-23T00:33:06.442Z,58.74
2023-04-23T00:38:06.393Z,58.72
2023-04-23T00:43:06.321Z,58.71
2023-04-23T00:48:07.158Z,58.69
2023-04-23T00:53:06.185Z,58.69
2023-04-23T00:58:06.116Z,58.70
2023-04-23T01:03:06.109Z,58.69
2023-04-23T01:08:06.002Z,58.69
2023-04-23T01:13:05.900Z,58.72
2023-04-23T01:18:05.909Z,58.74
2023-04-23T01:23:05.802Z,58.74
2023-04-23T01:28:05.735Z,58.80
2023-04-23T01:33:05.667Z,58.84
2023-04-23T01:38:05.629Z,58.87
2023-04-23T01:43:05.485Z,58.88
2023-04-23T01:48:05.500Z,58.87
2023-04-23T01:53:05.409Z,58.88
2023-04-23T01:58:05.335Z,58.91
2023-04-23T02:03:05.351Z,58.96
2023-04-23T02:08:05.189Z,59.00
2023-04-23T02:13:05.128Z,59.06
2023-04-23T02:18:05.110Z,59.17
2023-04-23T02:23:04.997Z,59.22
2023-04-23T02:28:04.950Z,59.28
2023-04-23T02:33:04.846Z,59.41
2023-04-23T02:38:04.801Z,59.51
2023-04-23T02:43:04.716Z,59.58
2023-04-23T02:48:04.758Z,59.67
2023-04-23T02:53:04.576Z,59.71
2023-04-23T02:58:04.557Z,59.70
2023-04-23T03:03:04.660Z,59.78
2023-04-23T03:08:04.394Z,59.87
2023-04-23T03:13:04.476Z,59.99
2023-04-23T03:18:04.380Z,60.11
2023-04-23T03:23:04.191Z,60.20
2023-04-23T03:28:04.162Z,60.28
2023-04-23T03:33:04.069Z,60.39
2023-04-23T03:38:04.005Z,60.45
2023-04-23T03:43:03.918Z,60.53
2023-04-23T03:48:03.887Z,60.67
2023-04-23T03:53:03.824Z,60.73
2023-04-23T03:58:03.741Z,60.84
2023-04-23T04:03:03.803Z,60.88
2023-04-23T04:08:03.616Z,60.92
2023-04-23T04:13:03.538Z,60.97
2023-04-23T04:18:03.519Z,61.00
2023-04-23T04:23:03.430Z,61.17
2023-04-23T04:28:03.357Z,61.29
2023-04-23T04:33:03.263Z,61.36
2023-04-23T04:38:03.442Z,61.39
2023-04-23T04:43:03.142Z,61.38
2023-04-23T04:48:03.140Z,61.39
2023-04-23T04:53:03.030Z,61.41
2023-04-23T04:58:02.975Z,61.48
2023-04-23T05:03:02.997Z,61.53
2023-04-23T05:08:02.829Z,61.33
2023-04-23T05:13:02.745Z,61.12
2023-04-23T05:18:02.759Z,60.70
2023-04-23T05:23:02.616Z,60.49
2023-04-23T05:28:02.581Z,60.50
2023-04-23T05:33:02.587Z,60.69
2023-04-23T05:38:02.408Z,60.92
2023-04-23T05:43:02.335Z,60.78
2023-04-23T05:48:02.291Z,60.78
2023-04-23T05:53:02.195Z,60.06
2023-04-23T05:58:02.156Z,58.79
2023-04-23T06:03:13.280Z,57.50
2023-04-23T06:08:05.565Z,57.61
2023-04-23T06:13:05.548Z,57.90
2023-04-23T06:18:05.463Z,57.45
2023-04-23T06:23:05.410Z,55.86
2023-04-23T06:28:05.348Z,51.02
2023-04-23T06:33:05.292Z,55.04
2023-04-23T06:38:05.197Z,56.33
2023-04-23T06:43:05.162Z,57.19
2023-04-23T06:48:05.108Z,57.98
2023-04-23T06:53:05.020Z,58.50
2023-04-23T06:58:04.924Z,58.44
2023-04-23T07:03:05.052Z,57.98
2023-04-23T07:08:04.810Z,56.92
2023-04-23T07:13:04.794Z,54.92
2023-04-23T07:18:04.693Z,53.57
2023-04-23T07:23:04.737Z,47.86
2023-04-23T07:28:04.565Z,45.66
2023-04-23T07:33:04.564Z,46.60
2023-04-23T07:38:04.425Z,44.71
2023-04-23T07:43:04.359Z,45.88
2023-04-23T07:48:04.358Z,47.05
2023-04-23T07:53:04.248Z,49.44
2023-04-23T07:58:04.157Z,51.09
2023-04-23T08:03:04.210Z,51.91
2023-04-23T08:08:04.059Z,52.01
2023-04-23T08:13:03.970Z,52.20
2023-04-23T08:18:03.916Z,52.33
2023-04-23T08:23:03.837Z,52.26
2023-04-23T08:28:03.737Z,51.92
2023-04-23T08:33:03.801Z,51.91
2023-04-23T08:38:03.703Z,51.19
2023-04-23T08:43:03.742Z,50.67
2023-04-23T08:48:03.521Z,50.09
2023-04-23T08:53:03.545Z,46.25
2023-04-23T08:58:03.410Z,41.69
2023-04-23T09:03:03.518Z,39.37
2023-04-23T09:08:03.226Z,36.64
2023-04-23T09:13:03.135Z,35.94
2023-04-23T09:18:03.148Z,35.45
2023-04-23T09:23:03.065Z,34.21
2023-04-23T09:28:02.953Z,37.95
2023-04-23T09:33:03.046Z,37.22
2023-04-23T09:38:02.846Z,39.38
2023-04-23T09:43:02.788Z,40.99
2023-04-23T09:48:02.834Z,42.05
2023-04-23T09:53:02.857Z,40.83
2023-04-23T09:58:02.562Z,41.36
2023-04-23T10:03:02.614Z,41.04
2023-04-23T10:08:02.429Z,39.36
2023-04-23T10:13:02.383Z,38.17
2023-04-23T10:18:02.330Z,38.27
2023-04-23T10:23:02.280Z,36.88
2023-04-23T10:28:02.259Z,37.06
2023-04-23T10:33:02.267Z,36.78
2023-04-23T10:38:02.068Z,38.25
2023-04-23T10:43:02.018Z,35.89
2023-04-23T10:48:01.938Z,37.54
2023-04-23T10:53:01.868Z,39.91
2023-04-23T10:58:02.638Z,41.31
2023-04-23T11:03:01.846Z,41.69
2023-04-23T11:08:11.072Z,41.23
2023-04-23T11:13:02.610Z,41.00
2023-04-23T11:18:01.522Z,41.57
2023-04-23T11:23:01.492Z,42.52
2023-04-23T11:28:01.532Z,43.61
2023-04-23T11:33:01.828Z,43.74
2023-04-23T11:38:01.242Z,42.78
2023-04-23T11:43:01.261Z,41.81
2023-04-23T11:48:01.282Z,40.17
2023-04-23T11:53:01.057Z,36.26
2023-04-23T11:58:00.942Z,35.09
2023-04-23T12:03:01.435Z,35.89
2023-04-23T12:08:00.934Z,37.95
2023-04-23T12:13:00.812Z,37.18
2023-04-23T12:18:00.799Z,35.13
2023-04-23T12:23:00.711Z,33.27
2023-04-23T12:28:00.661Z,34.91
2023-04-23T12:33:00.648Z,35.72
2023-04-23T12:38:00.506Z,35.81
2023-04-23T12:43:00.385Z,35.06
2023-04-23T12:48:00.355Z,34.27
2023-04-23T12:53:00.313Z,32.11
2023-04-23T12:58:00.229Z,32.52
2023-04-23T13:03:00.295Z,32.48
2023-04-23T13:08:00.165Z,32.47
2023-04-23T13:12:59.975Z,33.56
2023-04-23T13:17:59.992Z,34.17
2023-04-23T13:22:59.949Z,34.34
2023-04-23T13:27:59.804Z,34.88
2023-04-23T13:32:59.775Z,35.37
2023-04-23T13:37:59.672Z,35.78
2023-04-23T13:42:59.583Z,35.97
2023-04-23T13:47:59.584Z,36.15
2023-04-23T13:52:59.453Z,36.38
2023-04-23T13:57:59.449Z,37.05
2023-04-23T14:02:59.486Z,37.56
2023-04-23T14:07:59.348Z,37.13
2023-04-23T14:12:59.203Z,36.86
2023-04-23T14:17:59.261Z,36.53
2023-04-23T14:22:59.059Z,36.42
2023-04-23T14:27:58.992Z,36.54
2023-04-23T14:32:58.934Z,37.35
2023-04-23T14:37:58.885Z,38.15
2023-04-23T14:43:08.180Z,38.79
2023-04-23T14:47:59.899Z,39.15
2023-04-23T14:52:58.699Z,39.54
2023-04-23T14:57:58.592Z,39.84
2023-04-23T15:02:58.672Z,39.77
2023-04-23T15:07:58.468Z,39.67
2023-04-23T15:12:58.395Z,39.70
2023-04-23T15:17:58.366Z,39.46
2023-04-23T15:22:58.289Z,39.58
2023-04-23T15:27:58.228Z,40.00
2023-04-23T15:32:58.223Z,40.15
2023-04-23T15:37:58.069Z,40.22
2023-04-23T15:42:57.997Z,40.60
2023-04-23T15:47:57.962Z,41.03
2023-04-23T15:52:57.874Z,41.97
2023-04-23T15:57:57.823Z,43.41
2023-04-23T16:02:57.786Z,44.86
2023-04-23T16:07:57.680Z,49.64
2023-04-23T16:12:57.583Z,50.15
2023-04-23T16:17:57.577Z,51.30
2023-04-23T16:22:57.495Z,51.18
2023-04-23T16:27:57.434Z,51.45
2023-04-23T16:32:57.399Z,51.61
2023-04-23T16:37:57.282Z,52.29
2023-04-23T16:42:57.198Z,52.43
2023-04-23T16:47:57.173Z,52.65
2023-04-23T16:52:57.064Z,53.04
2023-04-23T16:57:57.004Z,53.53
2023-04-23T17:02:57.074Z,53.62
2023-04-23T17:07:56.849Z,53.76
2023-04-23T17:12:56.776Z,53.97
2023-04-23T17:17:56.802Z,54.25
2023-04-23T17:22:56.684Z,54.25
2023-04-23T17:27:56.614Z,54.41
2023-04-23T17:32:56.596Z,54.37
2023-04-23T17:37:56.475Z,54.68
2023-04-23T17:42:56.399Z,54.65
2023-04-23T17:47:56.375Z,54.99
2023-04-23T17:52:56.309Z,55.00
2023-04-23T17:57:56.202Z,55.42
2023-04-23T18:02:56.324Z,55.70
2023-04-23T18:07:56.236Z,56.23
2023-04-23T18:12:56.020Z,56.33
2023-04-23T18:17:56.050Z,56.53
2023-04-23T18:22:55.927Z,56.78
2023-04-23T18:27:55.853Z,56.99
2023-04-23T18:32:55.860Z,57.31
2023-04-23T18:37:55.712Z,57.80
2023-04-23T18:42:55.802Z,58.28
2023-04-23T18:47:55.621Z,58.24
2023-04-23T18:52:55.551Z,58.29
2023-04-23T18:57:55.415Z,58.49
2023-04-23T19:02:55.443Z,58.44
2023-04-23T19:07:56.673Z,58.85
2023-04-23T19:12:55.199Z,58.85
2023-04-23T19:17:55.200Z,58.79
2023-04-23T19:22:55.086Z,58.97
2023-04-23T19:27:55.034Z,58.97
2023-04-23T19:32:55.033Z,59.05
2023-04-23T19:37:54.879Z,58.89
2023-04-23T19:42:54.821Z,58.92
2023-04-23T19:47:54.788Z,59.05
2023-04-23T19:52:54.718Z,59.03
2023-04-23T19:57:54.581Z,59.19
2023-04-23T20:02:54.761Z,59.15
2023-04-23T20:07:54.516Z,59.03
2023-04-23T20:12:54.397Z,59.03
2023-04-23T20:17:54.421Z,59.00
2023-04-23T20:22:54.333Z,58.87
2023-04-23T20:27:54.190Z,59.00
2023-04-23T20:32:54.213Z,59.05
2023-04-23T20:37:54.080Z,58.99
2023-04-23T20:42:54.035Z,59.02
2023-04-23T20:47:53.983Z,58.96
2023-04-23T20:52:53.900Z,58.82
2023-04-23T20:57:53.824Z,58.79
2023-04-23T21:02:53.975Z,58.80
2023-04-23T21:07:53.777Z,58.87
2023-04-23T21:12:53.645Z,58.88
2023-04-23T21:17:53.862Z,58.88
2023-04-23T21:22:53.547Z,58.88
2023-04-23T21:27:53.458Z,58.93
2023-04-23T21:32:53.489Z,59.09
2023-04-23T21:37:53.399Z,59.24
2023-04-23T21:42:53.452Z,59.20
2023-04-23T21:47:53.194Z,59.19
2023-04-23T21:52:53.108Z,59.09
2023-04-23T21:57:53.695Z,58.96
2023-04-23T22:02:53.164Z,58.86
2023-04-23T22:07:54.982Z,58.76
2023-04-23T22:12:52.851Z,58.73
2023-04-23T22:17:52.766Z,58.69
2023-04-23T22:22:52.712Z,58.75
2023-04-23T22:27:52.694Z,58.81
2023-04-23T22:32:52.591Z,58.83
2023-04-23T22:37:52.480Z,58.80
2023-04-23T22:42:52.440Z,58.78
2023-04-23T22:47:52.391Z,58.73
2023-04-23T22:52:52.325Z,58.71
2023-04-23T22:57:52.234Z,58.74
2023-04-23T23:02:52.216Z,58.78
2023-04-23T23:07:52.073Z,58.82
2023-04-23T23:12:52.054Z,58.80
2023-04-23T23:17:51.976Z,58.78
2023-04-23T23:22:51.903Z,58.82
2023-04-23T23:27:51.844Z,58.95
2023-04-23T23:32:51.808Z,59.07
2023-04-23T23:37:51.672Z,59.43
2023-04-23T23:42:51.636Z,59.88
2023-04-23T23:47:51.615Z,60.14
2023-04-23T23:52:51.487Z,60.51
2023-04-23T23:57:51.479Z,60.87
